• Join FlightAware (Why Join?)
  • Login
  • US Flag 
Rudolph Flight #1: Scheduled 
09:08PM EST


 

Airport Tracker/Info


-or-


 

Live Flight TrackerFlight Track Log ✈ UAL4528 ✈ 18-Apr-2013 ✈ KMEM - KIAH

Flight Track Log - Related Links

Times and Time Zones

All times are in EDT time to prevent confusion due to time zone crossing. See the UAL4528 flight status page for this flight to view local times or setup timezone preferences in your user account.

Time Position Orientation Groundspeed Altitude Reporting Facility
EDT Latitude Longitude Course Direction KTS MPH feet Rate Location/Type
05:56PM 35.0167 -89.9667 154° Southeast 163 188 900  Level KMEM
05:56PM 35.0000 -89.9833 219° Southwest 168 193 1,900 2,040 Climbing KMEM
05:57PM 34.9333 -90.0000 192° South 216 249 4,300 2,580 Climbing KMEM
05:58PM 34.8667 -90.0000 180° South 214 246 7,400 2,280 Climbing KMEM
05:59PM 34.7827 -90.2741 191° South  Level Estimated
06:00PM 34.7029 -90.2258 154° Southeast  Level FlightAware Approximate
06:00PM 34.7608 -90.0336 195° South 241 277 10,800  Level Memphis Center
06:01PM 34.6232 -90.1776 154° Southeast  Level FlightAware Approximate
06:01PM 34.6794 -90.0264 176° South 273 314 11,900  Level Memphis Center
06:02PM 34.5936 -89.9864 159° South 324 373 13,700 2,040 Climbing Memphis Center
06:03PM 34.5122 -89.9539 162° South 318 366 16,000 4,140 Climbing Memphis Center
06:04PM 34.4289 -89.9642 186° South 304 350 22,000 1,800 Climbing Memphis Center
06:05PM 34.4019 -90.0400 247° West 210 242 19,600 -720 Descending Memphis Center
06:06PM 34.4750 -90.1253 316° Northwest 202 232 20,600 900 Climbing Memphis Center
06:07PM 34.5483 -90.2133 315° West 288 331 21,500 900 Climbing Memphis Center
06:08PM 34.6131 -90.3067 310° West 344 396 22,500 1,140 Climbing Memphis Center
06:09PM 34.6589 -90.4125 298° West 356 410 23,800 1,260 Climbing Memphis Center
06:10PM 34.7028 -90.5111 298° West 350 403 25,100 1,200 Climbing Memphis Center
06:11PM 34.7317 -90.6175 288° West 338 389 26,200 960 Climbing Memphis Center
06:12PM 34.7522 -90.7261 283° West 324 373 27,100 780 Climbing Memphis Center
06:13PM 34.7728 -90.8300 284° West 336 387 27,800 960 Climbing Memphis Center
06:14PM 34.7972 -90.9489 284° West 348 400 29,100 1,500 Climbing Memphis Center
06:15PM 34.8178 -91.0578 283° West 348 400 30,900 1,440 Climbing Memphis Center
06:16PM 34.8400 -91.1667 284° West 341 392 32,000 1,200 Climbing Memphis Center
06:17PM 34.8600 -91.2733 283° West 336 387 33,400 960 Climbing Memphis Center
06:18PM 34.8822 -91.3822 284° West 331 381 34,000 300 Climbing Memphis Center
06:19PM 34.9000 -91.4939 281° West 337 388 34,000  Level Memphis Center
06:20PM 34.9217 -91.6158 282° West 348 400 34,100 840 Climbing Memphis Center
06:21PM 34.9456 -91.7353 284° West 361 415 35,700 900 Climbing Memphis Center
06:22PM 34.9672 -91.8522 283° West 361 415 36,000 120 Climbing Memphis Center
06:23PM 34.9906 -91.9742 283° West 361 415 36,000  Level Memphis Center
06:24PM 35.0142 -92.0989 283° West 367 422 36,000  Level Memphis Center
06:25PM 35.0331 -92.2211 281° West 372 428 36,000  Level Memphis Center
06:26PM 35.0583 -92.3536 283° West 372 428 36,000  Level Memphis Center
06:27PM 35.0811 -92.4811 282° West 372 428 36,000  Level Memphis Center
06:28PM 35.1042 -92.6033 283° West 372 428 36,000  Level Memphis Center
06:29PM 35.1206 -92.7281 279° West 372 428 36,000  Level Memphis Center
06:30PM 35.0872 -92.8364 249° West 352 405 36,000  Level Memphis Center
06:31PM 35.0392 -92.9414 241° Southwest 341 392 36,000  Level Memphis Center
06:32PM 34.9972 -93.0417 243° Southwest 341 392 36,000  Level Memphis Center
06:33PM 34.9514 -93.1439 241° Southwest 341 392 36,000  Level Memphis Center
06:34PM 34.9072 -93.2464 242° Southwest 346 398 36,000  Level Memphis Center
06:35PM 34.8608 -93.3511 242° Southwest 346 398 36,000  Level Memphis Center
06:36PM 34.8144 -93.4556 242° Southwest 346 398 36,000  Level Memphis Center
06:37PM 34.7703 -93.5553 242° Southwest 346 398 36,000  Level Memphis Center
06:38PM 34.7281 -93.6547 243° Southwest 346 398 36,000  Level Memphis Center
06:39PM 34.6836 -93.7567 242° Southwest 346 398 36,000  Level Memphis Center
06:40PM 34.6372 -93.8556 240° Southwest 346 398 36,000  Level Memphis Center
06:41PM 34.5906 -93.9547 240° Southwest 346 398 36,000  Level Memphis Center
06:43PM 34.4986 -94.1706 243° Southwest 333 383 36,000  Level Fort Worth Center
06:44PM 34.4533 -94.2731 242° Southwest 338 389 36,000  Level Fort Worth Center
06:45PM 34.4078 -94.3703 240° Southwest 338 389 36,000  Level Fort Worth Center
06:46PM 34.3622 -94.4700 241° Southwest 343 395 36,000  Level Fort Worth Center
06:47PM 34.3186 -94.5697 242° Southwest 343 395 36,000  Level Fort Worth Center
06:48PM 34.2708 -94.6717 240° Southwest 343 395 36,000  Level Fort Worth Center
06:49PM 34.2269 -94.7686 241° Southwest 338 389 36,000  Level Fort Worth Center
06:50PM 34.1789 -94.8703 240° Southwest 344 396 36,000  Level Fort Worth Center
06:51PM 34.1331 -94.9722 242° Southwest 344 396 36,000  Level Fort Worth Center
06:52PM 34.0931 -95.0611 241° Southwest 344 396 36,000  Level Fort Worth Center
06:53PM 34.0486 -95.1550 240° Southwest 339 390 36,000  Level Fort Worth Center
06:54PM 34.0025 -95.2539 241° Southwest 339 390 36,000  Level Fort Worth Center
06:55PM 33.9581 -95.3500 241° Southwest 339 390 36,000  Level Fort Worth Center
06:56PM 33.9097 -95.4464 239° Southwest 339 390 36,000  Level Fort Worth Center
06:57PM 33.8653 -95.5400 240° Southwest 339 390 36,000  Level Fort Worth Center
06:58PM 33.8269 -95.6383 245° Southwest 329 379 36,000  Level Fort Worth Center
06:59PM 33.7803 -95.7292 238° Southwest 329 379 36,000  Level Fort Worth Center
07:00PM 33.7336 -95.8350 242° Southwest 335 386 36,000  Level Fort Worth Center
07:01PM 33.6825 -95.9308 237° Southwest 335 386 36,000  Level Fort Worth Center
07:02PM 33.6397 -96.0261 242° Southwest 335 386 36,000  Level Fort Worth Center
07:03PM 33.5950 -96.1217 241° Southwest 335 386 36,000  Level Fort Worth Center
07:04PM 33.5500 -96.2172 241° Southwest 335 386 36,000  Level Fort Worth Center
07:05PM 33.4839 -96.2953 225° Southwest 335 386 36,000  Level Fort Worth Center
07:06PM 33.4136 -96.3683 221° Southwest 335 386 36,000  Level Fort Worth Center
07:07PM 33.3389 -96.4364 217° Southwest 335 386 36,000  Level Fort Worth Center
07:08PM 33.2367 -96.4522 187° South 352 405 36,000  Level Fort Worth Center
07:09PM 33.1386 -96.4583 183° South 378 435 36,000  Level Fort Worth Center
07:10PM 33.0322 -96.4594 181° South 391 450 36,000  Level Fort Worth Center
07:11PM 32.9258 -96.4631 182° South 386 444 36,000  Level Fort Worth Center
07:12PM 32.8236 -96.4667 182° South 375 432 36,000  Level Fort Worth Center
07:13PM 32.7192 -96.4725 183° South 375 432 36,000  Level Fort Worth Center
07:14PM 32.6067 -96.4764 182° South 375 432 36,000  Level Fort Worth Center
07:15PM 32.5042 -96.4797 182° South 369 425 36,000  Level Fort Worth Center
07:16PM 32.3978 -96.4858 183° South 369 425 36,000  Level Fort Worth Center
07:17PM 32.2936 -96.4894 182° South 374 430 36,000  Level Fort Worth Center
07:18PM 32.1869 -96.4928 182° South 380 437 36,000  Level Fort Worth Center
07:19PM 32.0786 -96.4939 180° South 385 443 36,000  Level Fort Worth Center
07:20PM 31.9511 -96.5000 182° South 385 443 36,000 -420 Level Fort Worth Center
07:21PM 31.8447 -96.5036 182° South 385 443 35,200 -1,380 Descending Fort Worth Center
07:22PM 31.7383 -96.5047 181° South 385 443 33,300 -1,800 Descending Fort Worth Center
07:24PM 31.6078 -96.5122 183° South 390 449 31,100 -960 Descending Houston Center
07:25PM 31.4744 -96.4972 175° South 416 479 31,000 -180 Descending Houston Center
07:26PM 31.3583 -96.4542 162° South 429 494 30,800 -1,260 Descending Houston Center
07:27PM 31.2436 -96.4106 162° South 428 493 28,500 -2,280 Descending Houston Center
07:28PM 31.1231 -96.3664 163° South 442 509 26,200 -2,280 Descending Houston Center
07:29PM 31.0142 -96.2972 151° Southeast 443 510 23,900 -2,280 Descending Houston Center
07:30PM 30.9106 -96.2153 146° Southeast 443 510 21,500 -2,220 Descending Houston Center
07:31PM 30.8089 -96.1358 146° Southeast 436 502 19,400 -2,160 Descending Houston Center
07:32PM 30.7164 -96.0681 148° Southeast 411 473 17,500 -2,100 Descending Houston Center
07:33PM 30.6264 -95.9981 146° Southeast 404 465 15,600 -2,040 Descending Houston Center
07:34PM 30.5275 -95.9222 147° Southeast 389 448 13,500 -2,100 Descending Houston Center
07:34PM 30.5108 -95.9078 143° Southeast 391 450 13,000 -1,980 Descending Houston Center
07:35PM 30.4439 -95.8519 144° Southeast 362 417 11,500 -1,680 Descending Houston Center
07:35PM 30.4294 -95.8389 142° Southeast 367 422 11,300 -1,020 Descending Houston Center
07:36PM 30.3747 -95.7825 138° Southeast 315 362 10,500 -1,080 Descending Houston Center
07:36PM 30.3631 -95.7683 134° Southeast 334 384 10,200 -1,380 Descending Houston Center
07:37PM 30.3144 -95.7169 138° Southeast 284 327 9,100 -1,380 Descending Houston Center
07:37PM 30.3044 -95.7086 144° Southeast 295 339 8,800 -1,620 Descending Houston Center
07:38PM 30.2544 -95.6564 138° Southeast 278 320 7,500 -1,560 Descending Houston Center
07:38PM 30.2469 -95.6469 133° Southeast 282 325 7,200 -1,380 Descending Houston Center
07:39PM 30.1942 -95.5933 139° Southeast 285 328 6,100 -1,260 Descending Houston Center
07:39PM 30.1764 -95.5744 137° Southeast 282 325 5,900 -120 Descending Houston Center
07:40PM 30.1342 -95.5306 138° Southeast 289 333 6,000  Climbing Houston Center
07:40PM 30.1169 -95.5122 137° Southeast 286 329 5,900 60 Descending Houston Center
07:41PM 30.1058 -95.4492 101° East 289 333 6,100  Climbing Houston Center
07:41PM 30.1061 -95.4192 89° East 288 331 5,900 -120 Descending Houston Center
07:42PM 30.1056 -95.3553 91° East 291 335 6,000  Climbing Houston Center
07:42PM 30.1072 -95.3261 86° East 292 336 5,900  Descending Houston Center
07:43PM 30.1053 -95.2611 92° East 285 328 6,000 -120 Climbing Houston Center
07:43PM 30.1058 -95.2342 89° East 290 334 5,800 -1,200 Descending Houston Center
07:44PM 30.1056 -95.1717 90° East 251 289 4,800 -1,680 Descending Houston Center
07:44PM 30.1061 -95.1500 88° East 272 313 4,100 -1,920 Descending Houston Center
07:45PM 30.0756 -95.0981 124° Southeast 276 318 2,900 -2,040 Descending Houston Center
07:45PM 30.0472 -95.0825 155° Southeast 269 310 2,000 -900 Descending Houston Center
07:46PM 30.0175 -95.1075 216° Southwest 223 257 2,000 -120 Level Houston Center
07:46PM 30.0064 -95.1322 243° Southwest 236 272 1,900 60 Descending Houston Center
07:47PM 30.0067 -95.1692 271° West 190 219 2,100 60 Climbing Houston Center
07:48PM 30.0083 -95.1922 275° West 205 236 2,000 -120 Descending Houston Center
07:48PM 30.0072 -95.2222 268° West 139 160 2,000 -420 Level Houston Center
07:49PM 30.0081 -95.2403 273° West 178 205 1,600 -780 Descending Houston Center